createdAt,value
2019-05-05T00:01:35.103Z,14.36
2019-05-05T00:04:21.363Z,14.38
2019-05-05T00:06:54.896Z,14.45
2019-05-05T00:09:26.656Z,14.54
2019-05-05T00:12:17.878Z,14.46
2019-05-05T00:15:02.103Z,14.23
2019-05-05T00:17:38.418Z,13.89
2019-05-05T00:20:10.106Z,14.08
2019-05-05T00:22:41.822Z,14.01
2019-05-05T00:25:14.334Z,14.12
2019-05-05T00:27:47.853Z,14.07
2019-05-05T00:30:19.622Z,14.08
2019-05-05T00:32:54.850Z,14.11
2019-05-05T00:35:27.152Z,14.18
2019-05-05T00:38:01.995Z,14.18
2019-05-05T00:40:35.306Z,14.26
2019-05-05T00:43:07.180Z,14.00
2019-05-05T00:45:40.135Z,13.77
2019-05-05T00:48:20.241Z,13.60
2019-05-05T00:50:55.643Z,13.44
2019-05-05T00:53:27.252Z,13.30
2019-05-05T00:56:02.435Z,13.30
2019-05-05T00:58:35.826Z,13.32
2019-05-05T01:01:19.594Z,13.31
2019-05-05T01:03:51.771Z,13.25
2019-05-05T01:06:29.575Z,13.24
2019-05-05T01:09:04.390Z,13.29
2019-05-05T01:11:37.520Z,13.36
2019-05-05T01:14:09.194Z,13.44
2019-05-05T01:16:40.844Z,13.40
2019-05-05T01:19:12.532Z,13.35
2019-05-05T01:21:45.371Z,13.41
2019-05-05T01:24:17.161Z,13.25
2019-05-05T01:26:50.302Z,13.35
2019-05-05T01:29:21.957Z,13.43
2019-05-05T01:31:55.316Z,13.33
2019-05-05T01:34:34.866Z,13.17
2019-05-05T01:37:16.676Z,13.13
2019-05-05T01:40:02.232Z,12.96
2019-05-05T01:42:35.279Z,12.96
2019-05-05T01:45:07.246Z,12.87
2019-05-05T01:47:38.894Z,12.78
2019-05-05T01:50:18.488Z,12.72
2019-05-05T01:52:45.613Z,12.71
2019-05-05T01:55:17.314Z,12.69
2019-05-05T01:57:49.993Z,12.73
2019-05-05T02:00:25.222Z,12.65
2019-05-05T02:02:56.539Z,12.68
2019-05-05T02:05:28.189Z,12.62
2019-05-05T02:08:01.072Z,12.59
2019-05-05T02:10:34.873Z,12.52
2019-05-05T02:13:06.284Z,12.53
2019-05-05T02:15:38.225Z,12.53
2019-05-05T02:18:09.976Z,12.67
2019-05-05T02:21:05.942Z,12.82
2019-05-05T02:23:38.890Z,12.89
2019-05-05T02:26:10.563Z,12.92
2019-05-05T02:29:00.919Z,12.88
2019-05-05T02:31:50.430Z,12.87
2019-05-05T02:34:25.544Z,12.70
2019-05-05T02:36:56.570Z,12.51
2019-05-05T02:39:28.523Z,12.42
2019-05-05T02:42:00.364Z,12.32
2019-05-05T02:44:34.677Z,12.14
2019-05-05T02:47:11.830Z,12.12
2019-05-05T02:49:45.378Z,12.12
2019-05-05T02:52:17.163Z,12.39
2019-05-05T02:54:49.803Z,12.56
2019-05-05T02:57:21.519Z,12.36
2019-05-05T03:00:14.874Z,12.45
2019-05-05T03:02:48.431Z,12.33
2019-05-05T03:05:20.185Z,12.12
2019-05-05T03:07:51.902Z,12.01
2019-05-05T03:10:24.687Z,12.11
2019-05-05T03:12:56.359Z,11.97
2019-05-05T03:15:55.021Z,11.84
2019-05-05T03:18:26.384Z,11.68
2019-05-05T03:21:04.508Z,11.60
2019-05-05T03:23:33.434Z,11.76
2019-05-05T03:26:05.314Z,11.73
2019-05-05T03:28:45.360Z,11.76
2019-05-05T03:31:17.666Z,11.73
2019-05-05T03:33:54.702Z,11.78
2019-05-05T03:36:24.960Z,11.70
2019-05-05T03:38:56.856Z,11.84
2019-05-05T03:41:35.351Z,11.83
2019-05-05T03:44:28.853Z,11.66
2019-05-05T03:47:00.620Z,11.58
2019-05-05T03:49:33.812Z,11.65
2019-05-05T03:52:05.913Z,11.46
2019-05-05T03:54:37.623Z,11.30
2019-05-05T03:57:09.376Z,11.23
2019-05-05T03:59:44.042Z,11.19
2019-05-05T04:02:37.265Z,11.27
2019-05-05T04:05:26.771Z,11.28
2019-05-05T04:07:58.445Z,11.30
2019-05-05T04:10:33.500Z,11.24
2019-05-05T04:13:07.047Z,11.24
2019-05-05T04:15:44.198Z,11.30
2019-05-05T04:18:23.734Z,11.40
2019-05-05T04:20:54.904Z,11.51
2019-05-05T04:23:27.057Z,11.51
2019-05-05T04:25:58.741Z,11.54
2019-05-05T04:28:30.479Z,11.52
2019-05-05T04:31:04.093Z,11.49
2019-05-05T04:33:35.586Z,11.37
2019-05-05T04:36:07.648Z,11.35
2019-05-05T04:38:39.525Z,11.31
2019-05-05T04:41:11.257Z,11.35
2019-05-05T04:43:44.170Z,11.27
2019-05-05T04:46:16.057Z,11.23
2019-05-05T04:48:56.756Z,11.21
2019-05-05T04:51:46.296Z,11.19
2019-05-05T04:54:27.090Z,11.21
2019-05-05T04:56:58.756Z,11.22
2019-05-05T04:59:30.420Z,11.25
2019-05-05T05:02:06.725Z,11.29
2019-05-05T05:04:46.936Z,11.33
2019-05-05T05:07:19.339Z,11.45
2019-05-05T05:09:51.564Z,11.56
2019-05-05T05:12:25.004Z,11.57
2019-05-05T05:14:57.054Z,11.66
2019-05-05T05:17:36.653Z,11.57
2019-05-05T05:20:08.337Z,11.56
2019-05-05T05:22:39.991Z,11.66
2019-05-05T05:25:14.508Z,11.86
2019-05-05T05:27:46.194Z,12.24
2019-05-05T05:30:24.138Z,12.35
2019-05-05T05:32:56.527Z,12.34
2019-05-05T05:35:28.208Z,12.43
2019-05-05T05:38:01.639Z,11.88
2019-05-05T05:40:41.166Z,11.96
2019-05-05T05:43:16.736Z,11.93
2019-05-05T05:45:58.103Z,11.96
2019-05-05T05:48:49.750Z,12.33
2019-05-05T05:51:23.800Z,12.33
2019-05-05T05:53:55.596Z,12.45
2019-05-05T05:56:27.337Z,12.47
2019-05-05T05:58:58.996Z,12.69
2019-05-05T06:01:34.392Z,12.76
2019-05-05T06:04:05.761Z,13.00
2019-05-05T06:06:37.472Z,13.20
2019-05-05T06:09:09.209Z,13.48
2019-05-05T06:11:40.892Z,13.70
2019-05-05T06:14:14.433Z,14.27
2019-05-05T06:16:47.117Z,16.03
2019-05-05T06:19:18.970Z,17.42
2019-05-05T06:21:54.272Z,18.04
2019-05-05T06:24:27.036Z,18.73
2019-05-05T06:26:59.878Z,19.24
2019-05-05T06:29:34.533Z,18.42
2019-05-05T06:32:08.000Z,18.04
2019-05-05T06:34:39.688Z,19.73
2019-05-05T06:37:11.364Z,20.43
2019-05-05T06:39:43.985Z,21.05
2019-05-05T06:42:31.224Z,21.63
2019-05-05T06:45:11.413Z,21.35
2019-05-05T06:47:44.696Z,21.71
2019-05-05T06:50:16.339Z,21.83
2019-05-05T06:52:48.372Z,22.80
2019-05-05T06:55:20.285Z,23.41
2019-05-05T06:57:53.890Z,23.74
2019-05-05T07:00:25.673Z,22.70
2019-05-05T07:02:57.325Z,21.76
2019-05-05T07:05:29.083Z,21.11
2019-05-05T07:08:00.715Z,21.02
2019-05-05T07:10:33.880Z,20.85
2019-05-05T07:13:06.197Z,20.86
2019-05-05T07:15:38.042Z,21.21
2019-05-05T07:18:19.671Z,21.43
2019-05-05T07:21:03.813Z,21.65
2019-05-05T07:23:35.680Z,22.18
2019-05-05T07:26:07.312Z,22.97
2019-05-05T07:28:38.995Z,22.72
2019-05-05T07:31:10.624Z,22.42
2019-05-05T07:33:43.809Z,23.30
2019-05-05T07:36:34.028Z,22.92
2019-05-05T07:39:08.716Z,22.20
2019-05-05T07:41:40.793Z,22.31
2019-05-05T07:44:25.787Z,22.41
2019-05-05T07:46:45.835Z,21.71
2019-05-05T07:49:17.499Z,22.05
2019-05-05T07:51:49.423Z,21.23
2019-05-05T07:54:23.639Z,22.21
2019-05-05T07:56:55.839Z,22.43
2019-05-05T07:59:30.117Z,22.77
2019-05-05T08:02:04.071Z,22.28
2019-05-05T08:04:36.682Z,23.65
2019-05-05T08:07:08.550Z,22.81
2019-05-05T08:09:54.266Z,22.65
2019-05-05T08:12:26.550Z,23.12
2019-05-05T08:15:08.838Z,24.20
2019-05-05T08:18:09.763Z,23.56
2019-05-05T08:20:44.421Z,23.56
2019-05-05T08:23:31.827Z,23.70
2019-05-05T08:26:23.670Z,23.12
2019-05-05T08:29:14.353Z,24.02
2019-05-05T08:32:04.338Z,24.03
2019-05-05T08:34:36.398Z,24.37
2019-05-05T08:37:08.137Z,24.24
2019-05-05T08:39:40.482Z,22.81
2019-05-05T08:42:14.269Z,23.13
2019-05-05T08:44:45.602Z,22.81
2019-05-05T08:47:17.414Z,22.94
2019-05-05T08:49:49.050Z,22.78
2019-05-05T08:52:20.728Z,23.06
2019-05-05T08:54:54.169Z,22.88
2019-05-05T08:57:25.978Z,23.84
2019-05-05T08:59:58.128Z,22.56
2019-05-05T09:02:33.022Z,23.79
2019-05-05T09:05:04.238Z,24.41
2019-05-05T09:07:36.637Z,23.46
2019-05-05T09:10:08.702Z,23.15
2019-05-05T09:12:43.712Z,23.21
2019-05-05T09:15:18.366Z,23.89
2019-05-05T09:17:50.159Z,25.22
2019-05-05T09:20:24.055Z,24.47
2019-05-05T09:22:57.299Z,24.78
2019-05-05T09:25:54.040Z,25.58
2019-05-05T09:28:30.392Z,24.65
2019-05-05T09:31:04.045Z,24.76
2019-05-05T09:33:35.470Z,25.98
2019-05-05T09:36:07.362Z,25.67
2019-05-05T09:38:39.139Z,25.58
2019-05-05T09:41:10.802Z,26.14
2019-05-05T09:43:48.721Z,25.70
2019-05-05T09:46:20.396Z,25.07
2019-05-05T09:48:54.022Z,24.77
2019-05-05T09:51:25.458Z,25.24
2019-05-05T09:54:10.249Z,25.35
2019-05-05T09:56:30.795Z,25.89
2019-05-05T09:59:03.782Z,26.34
2019-05-05T10:01:35.612Z,25.60
2019-05-05T10:04:11.231Z,25.30
2019-05-05T10:06:47.620Z,25.02
2019-05-05T10:09:16.380Z,25.39
2019-05-05T10:11:48.080Z,26.23
2019-05-05T10:14:19.794Z,27.00
2019-05-05T10:16:51.637Z,27.16
2019-05-05T10:19:24.366Z,27.23
2019-05-05T10:21:56.337Z,25.85
2019-05-05T10:24:39.342Z,26.58
2019-05-05T10:27:10.982Z,27.51
2019-05-05T10:29:44.222Z,27.23
2019-05-05T10:32:16.073Z,28.06
2019-05-05T10:35:01.034Z,27.49
2019-05-05T10:37:34.659Z,27.69
2019-05-05T10:40:31.504Z,27.73
2019-05-05T10:43:04.405Z,27.94
2019-05-05T10:45:36.549Z,28.06
2019-05-05T10:48:10.116Z,27.95
2019-05-05T10:50:41.750Z,28.56
2019-05-05T10:53:13.701Z,28.67
2019-05-05T10:55:45.465Z,27.02
2019-05-05T10:58:17.127Z,26.92
2019-05-05T11:00:54.481Z,27.55
2019-05-05T11:03:26.465Z,27.45
2019-05-05T11:05:58.248Z,28.33
2019-05-05T11:08:30.875Z,28.12
2019-05-05T11:11:04.206Z,28.51
2019-05-05T11:13:37.354Z,28.94
2019-05-05T11:16:09.180Z,30.36
2019-05-05T11:18:40.847Z,30.36
2019-05-05T11:21:14.604Z,29.36
2019-05-05T11:23:46.700Z,29.50
2019-05-05T11:26:18.397Z,29.62
2019-05-05T11:28:50.152Z,29.67
2019-05-05T11:31:23.819Z,28.27
2019-05-05T11:34:20.174Z,29.09
2019-05-05T11:37:06.645Z,29.58
2019-05-05T11:39:38.376Z,28.64
2019-05-05T11:42:10.010Z,27.66
2019-05-05T11:44:41.666Z,27.43
2019-05-05T11:47:14.018Z,27.29
2019-05-05T11:49:46.715Z,27.23
2019-05-05T11:52:18.537Z,27.22
2019-05-05T11:54:50.755Z,25.99
2019-05-05T11:57:23.968Z,25.84
2019-05-05T11:59:55.640Z,25.97
2019-05-05T12:02:28.505Z,26.03
2019-05-05T12:05:00.257Z,26.74
2019-05-05T12:07:34.096Z,26.02
2019-05-05T12:10:07.039Z,25.95
2019-05-05T12:12:39.783Z,25.69
2019-05-05T12:15:13.415Z,25.53
2019-05-05T12:17:46.933Z,25.99
2019-05-05T12:20:24.115Z,25.19
2019-05-05T12:22:57.569Z,25.49
2019-05-05T12:26:00.408Z,25.55
2019-05-05T12:28:45.475Z,25.86
2019-05-05T12:31:24.777Z,26.51
2019-05-05T12:33:56.417Z,25.85
2019-05-05T12:36:31.486Z,26.00
2019-05-05T12:39:04.812Z,26.10
2019-05-05T12:41:38.004Z,26.15
2019-05-05T12:44:11.408Z,26.26
2019-05-05T12:46:53.239Z,26.24
2019-05-05T12:49:25.532Z,26.17
2019-05-05T12:51:57.870Z,26.90
2019-05-05T12:54:29.630Z,26.70
2019-05-05T12:57:01.299Z,26.70
2019-05-05T12:59:33.973Z,26.86
2019-05-05T13:02:06.249Z,26.95
2019-05-05T13:04:38.027Z,26.23
2019-05-05T13:07:09.816Z,27.25
2019-05-05T13:09:41.536Z,27.44
2019-05-05T13:12:15.052Z,27.46
2019-05-05T13:14:46.729Z,28.00
2019-05-05T13:17:19.755Z,28.20
2019-05-05T13:20:24.593Z,27.66
2019-05-05T13:23:29.784Z,27.79
2019-05-05T13:26:06.214Z,28.06
2019-05-05T13:28:37.851Z,28.24
2019-05-05T13:31:09.893Z,28.45
2019-05-05T13:33:41.621Z,28.13
2019-05-05T13:36:13.834Z,28.28
2019-05-05T13:38:45.868Z,28.25
2019-05-05T13:41:17.501Z,27.39
2019-05-05T13:43:49.383Z,27.63
2019-05-05T13:46:24.806Z,28.19
2019-05-05T13:49:15.898Z,28.28
2019-05-05T13:51:47.556Z,27.66
2019-05-05T13:54:20.100Z,26.55
2019-05-05T13:56:52.939Z,25.94
2019-05-05T13:59:25.608Z,26.20
2019-05-05T14:01:57.529Z,26.24
2019-05-05T14:04:29.620Z,26.29
2019-05-05T14:07:01.350Z,26.41
2019-05-05T14:09:33.262Z,26.11
2019-05-05T14:12:05.409Z,26.46
2019-05-05T14:14:37.078Z,26.48
2019-05-05T14:17:08.720Z,27.34
2019-05-05T14:19:40.549Z,27.82
2019-05-05T14:22:12.542Z,28.05
2019-05-05T14:24:53.748Z,27.66
2019-05-05T14:27:26.318Z,28.43
2019-05-05T14:30:14.348Z,27.84
2019-05-05T14:32:46.606Z,27.82
2019-05-05T14:35:27.497Z,27.80
2019-05-05T14:38:03.898Z,28.14
2019-05-05T14:40:35.711Z,28.25
2019-05-05T14:43:07.387Z,28.17
2019-05-05T14:45:41.597Z,27.91
2019-05-05T14:48:13.964Z,27.42
2019-05-05T14:50:45.654Z,27.01
2019-05-05T14:53:18.133Z,26.50
2019-05-05T14:55:50.057Z,26.53
2019-05-05T14:58:21.695Z,26.34
2019-05-05T15:00:53.371Z,26.81
2019-05-05T15:03:25.092Z,26.28
2019-05-05T15:06:10.060Z,26.11
2019-05-05T15:09:13.872Z,25.96
2019-05-05T15:12:04.722Z,26.03
2019-05-05T15:14:39.315Z,25.52
2019-05-05T15:17:14.134Z,25.79
2019-05-05T15:19:46.031Z,25.71
2019-05-05T15:22:17.735Z,26.18
2019-05-05T15:24:49.998Z,25.33
2019-05-05T15:27:24.171Z,25.08
2019-05-05T15:29:56.077Z,24.92
2019-05-05T15:32:27.890Z,25.39
2019-05-05T15:34:59.616Z,25.38
2019-05-05T15:37:31.267Z,25.08
2019-05-05T15:40:03.983Z,24.86
2019-05-05T15:42:35.799Z,24.73
2019-05-05T15:45:09.720Z,24.85
2019-05-05T15:47:44.465Z,24.85
2019-05-05T15:50:17.852Z,24.82
2019-05-05T15:52:49.433Z,24.71
2019-05-05T15:55:21.095Z,24.87
2019-05-05T15:57:52.841Z,24.79
2019-05-05T16:00:25.642Z,24.87
2019-05-05T16:02:57.570Z,24.33
2019-05-05T16:05:29.451Z,24.05
2019-05-05T16:08:01.158Z,24.13
2019-05-05T16:10:34.669Z,24.07
2019-05-05T16:13:06.241Z,24.45
2019-05-05T16:16:00.386Z,24.71
2019-05-05T16:19:02.521Z,24.44
2019-05-05T16:21:50.190Z,24.55
2019-05-05T16:24:30.829Z,24.57
2019-05-05T16:27:17.928Z,24.86
2019-05-05T16:29:39.627Z,24.38
2019-05-05T16:32:19.544Z,23.47
2019-05-05T16:34:44.791Z,23.32
2019-05-05T16:37:16.516Z,23.54
2019-05-05T16:39:49.488Z,23.70
2019-05-05T16:42:21.182Z,23.98
2019-05-05T16:44:56.876Z,24.04
2019-05-05T16:47:29.785Z,23.90
2019-05-05T16:50:04.101Z,23.39
2019-05-05T16:52:40.768Z,23.62
2019-05-05T16:55:31.746Z,23.74
2019-05-05T16:58:04.009Z,23.83
2019-05-05T17:00:38.563Z,23.45
2019-05-05T17:03:10.704Z,23.38
2019-05-05T17:05:44.148Z,23.44
2019-05-05T17:08:15.773Z,23.40
2019-05-05T17:10:48.823Z,23.34
2019-05-05T17:13:34.479Z,23.23
2019-05-05T17:16:44.050Z,22.80
2019-05-05T17:19:41.635Z,22.47
2019-05-05T17:22:38.559Z,22.32
2019-05-05T17:25:11.267Z,22.50
2019-05-05T17:27:48.794Z,22.79
2019-05-05T17:30:16.730Z,22.75
2019-05-05T17:32:48.412Z,22.78
2019-05-05T17:35:20.447Z,22.51
2019-05-05T17:37:53.875Z,22.93
2019-05-05T17:40:33.637Z,23.23
2019-05-05T17:43:24.334Z,23.31
2019-05-05T17:46:16.569Z,22.98
2019-05-05T17:49:07.146Z,22.90
2019-05-05T17:51:43.640Z,22.48
2019-05-05T17:54:26.991Z,22.61
2019-05-05T17:56:58.652Z,22.79
2019-05-05T17:59:30.480Z,22.85
2019-05-05T18:02:04.734Z,22.69
2019-05-05T18:04:37.366Z,22.47
2019-05-05T18:07:14.372Z,22.19
2019-05-05T18:10:11.198Z,21.99
2019-05-05T18:13:03.597Z,21.97
2019-05-05T18:16:10.764Z,22.07
2019-05-05T18:18:44.270Z,21.80
2019-05-05T18:21:17.386Z,21.90
2019-05-05T18:23:49.107Z,21.83
2019-05-05T18:26:24.348Z,21.65
2019-05-05T18:28:57.541Z,21.55
2019-05-05T18:31:29.217Z,21.42
2019-05-05T18:34:01.328Z,21.30
2019-05-05T18:36:33.731Z,21.01
2019-05-05T18:39:06.655Z,20.96
2019-05-05T18:41:52.226Z,20.87
2019-05-05T18:44:30.984Z,20.83
2019-05-05T18:47:18.698Z,20.77
2019-05-05T18:57:56.388Z,20.51
2019-05-05T19:00:45.413Z,20.40
2019-05-05T19:03:21.162Z,20.33
2019-05-05T19:06:00.091Z,20.24
2019-05-05T19:08:53.778Z,20.15
2019-05-05T19:11:18.363Z,20.06
2019-05-05T19:13:50.160Z,19.95
2019-05-05T19:16:23.778Z,19.77
2019-05-05T19:18:55.769Z,19.58
2019-05-05T19:21:35.978Z,19.36
2019-05-05T19:24:07.948Z,19.29
2019-05-05T19:26:42.789Z,19.11
2019-05-05T19:29:15.423Z,19.01
2019-05-05T19:31:47.139Z,18.80
2019-05-05T19:34:20.588Z,18.77
2019-05-05T19:36:55.145Z,18.58
2019-05-05T19:39:27.352Z,18.29
2019-05-05T19:42:00.889Z,18.11
2019-05-05T19:44:33.988Z,18.23
2019-05-05T19:47:17.098Z,18.10
2019-05-05T19:49:55.302Z,17.93
2019-05-05T19:52:29.912Z,17.78
2019-05-05T19:55:04.260Z,17.64
2019-05-05T19:57:37.056Z,17.64
2019-05-05T20:00:08.924Z,17.51
2019-05-05T20:02:43.940Z,17.43
2019-05-05T20:05:16.170Z,17.34
2019-05-05T20:07:49.803Z,17.25
2019-05-05T20:10:21.607Z,17.13
2019-05-05T20:12:54.141Z,17.14
2019-05-05T20:15:33.805Z,17.12
2019-05-05T20:31:45.588Z,16.79
2019-05-05T20:34:35.168Z,16.63
2019-05-05T20:37:13.997Z,16.54
2019-05-05T20:39:46.456Z,16.50
2019-05-05T20:42:18.135Z,16.59
2019-05-05T20:44:49.815Z,16.64
2019-05-05T20:47:24.743Z,16.54
2019-05-05T20:49:56.428Z,16.64
2019-05-05T20:52:28.344Z,16.71
2019-05-05T20:55:00.060Z,16.55
2019-05-05T20:57:34.334Z,16.29
2019-05-05T21:00:06.316Z,16.40
2019-05-05T21:02:39.519Z,16.56
2019-05-05T21:05:11.175Z,16.41
2019-05-05T21:07:44.365Z,16.19
2019-05-05T21:10:16.432Z,16.34
2019-05-05T21:12:49.184Z,16.56
2019-05-05T21:15:20.869Z,16.45
2019-05-05T21:17:54.130Z,16.48
2019-05-05T21:20:26.114Z,16.46
2019-05-05T21:23:05.779Z,16.44
2019-05-05T21:25:39.727Z,16.34
2019-05-05T21:28:11.485Z,16.26
2019-05-05T21:30:45.329Z,16.31
2019-05-05T21:33:19.846Z,16.11
2019-05-05T21:35:52.024Z,16.11
2019-05-05T21:38:23.830Z,16.18
2019-05-05T21:40:56.110Z,16.02
2019-05-05T21:43:28.224Z,15.95
2019-05-05T21:45:59.919Z,15.75
2019-05-05T21:48:35.162Z,15.82
2019-05-05T21:51:14.654Z,15.83
2019-05-05T21:54:14.566Z,15.88
2019-05-05T21:57:06.958Z,15.87
2019-05-05T21:59:51.717Z,15.83
2019-05-05T22:02:15.187Z,15.88
2019-05-05T22:04:46.617Z,15.82
2019-05-05T22:07:18.759Z,15.78
2019-05-05T22:09:50.737Z,15.86
2019-05-05T22:12:24.284Z,15.80
2019-05-05T22:15:00.183Z,15.76
2019-05-05T22:17:33.601Z,15.76
2019-05-05T22:20:16.002Z,15.93
2019-05-05T22:22:48.686Z,15.91
2019-05-05T22:25:21.156Z,15.72
2019-05-05T22:27:54.523Z,15.58
2019-05-05T22:30:26.994Z,15.73
2019-05-05T22:33:05.744Z,15.89
2019-05-05T22:35:36.031Z,15.82
2019-05-05T22:38:08.520Z,15.92
2019-05-05T22:40:40.298Z,15.81
2019-05-05T22:43:14.379Z,15.83
2019-05-05T22:45:45.945Z,15.71
2019-05-05T22:48:17.825Z,15.58
2019-05-05T22:50:50.016Z,15.77
2019-05-05T22:53:23.901Z,15.83
2019-05-05T22:55:55.509Z,15.55
2019-05-05T22:58:27.354Z,15.57
2019-05-05T23:00:59.146Z,15.56
2019-05-05T23:04:03.717Z,15.34
2019-05-05T23:06:35.659Z,15.38
2019-05-05T23:09:14.594Z,15.39
2019-05-05T23:11:47.817Z,15.34
2019-05-05T23:14:28.701Z,15.57
2019-05-05T23:20:18.280Z,15.70
2019-05-05T23:23:07.618Z,15.79
2019-05-05T23:25:45.769Z,15.91
2019-05-05T23:28:17.902Z,15.92
2019-05-05T23:30:50.916Z,15.62
2019-05-05T23:33:24.519Z,15.31
2019-05-05T23:35:56.731Z,15.34
2019-05-05T23:38:28.729Z,15.27
2019-05-05T23:41:03.701Z,15.27
2019-05-05T23:43:35.202Z,15.33
2019-05-05T23:46:07.014Z,15.44
2019-05-05T23:48:40.467Z,15.53
2019-05-05T23:51:14.002Z,15.54
2019-05-05T23:53:45.750Z,15.52
2019-05-05T23:56:17.516Z,15.43
2019-05-05T23:58:49.255Z,15.60
